Forest fire From: 19-07-2018 20:00 Until: 20-07-2018 16:00 warning for: Forest fire Level: Yellow info button
suomi:
Metsäpalovaroitus on voimassa.

svenska:
Varning för skogsbrand gäller.

english:
A forest fire warning is in force. 

Extreme high temperature From: 19-07-2018 20:00 Until: 23:00 warning for: Extreme high temperature Level: Yellow info button
suomi:
Hellevaroitus: Lähivuorokauden aikana on odotettavissa tukalaa hellettä.

svenska:
Varning för värmebölja: Under det närmaste dygnet är den svåra hettan att vänta.

english:
Heat wave warning: Warm weather is expected during the coming 24 hours. 


Thunder radar more information blitzortung!


Löydät sääaseman tiedot myös:

European Weather Network

Finland Weather Exchange

Weather Underground

AWEKAS



Weather Underground säähistoriasivu

Päivittäin yhteenveto Lokakuu 15, 2017 Yksiköt:  Englantilaiset    Metriset   Molemmat
« Edellinen Päivä
Seuraava Päivä »
Päivittäin Viikoittain Kuukausittain Vuosittain Mukautettu
  Korkea: Matala: Keskiarvo:
Lämpötila: TemperatureC °F 5.3 °F 7.1 °F
Kastepiste: DewpointC °F 4.9 °F 6.3 °F
Kosteus: Humidity % 83 % 94 %
Tuulen nopeus: WindSpeedKMH mph 0.0 mph 0 mph
Tuulenpuuska: WindSpeedGustKMH mph - -
Tuuli:- - North
Ilmanpaine: PressurehPa in 1003.9 in -
Sade: 0.0 in    
Historical Graphs
 
 
Taulukkotiedot Lokakuu 15, 2017
Aika Lämpötila Kastepiste Ilmanpaine Tuuli Tuulen nopeus Tuulenpuuska Kosteus Sademäärä (tunneittain)
TemperatureC °F DewpointC °F PressurehPa in Calm     Humidity % HourlyPrecipMM in
00:00 6.1 °F 5.8 °F 1004.3 in Calm     98 % 0.0 in
00:15 6.1 °F 5.8 °F 1003.9 in Calm     98 % 0.0 in
00:30 6.1 °F 5.8 °F 1003.9 in Calm     98 % 0.0 in
00:45 6.0 °F 5.7 °F 1003.9 in Calm     98 % 0.0 in
01:00 6.0 °F 5.7 °F 1003.9 in Calm     98 % 0.0 in
01:15 6.1 °F 5.8 °F 1004.3 in Calm     98 % 0.0 in
01:30 6.3 °F 6.0 °F 1004.3 in Calm     98 % 0.0 in
01:45 6.6 °F 6.3 °F 1003.9 in Calm     98 % 0.0 in
02:00 6.7 °F 6.4 °F 1003.9 in Calm     98 % 0.0 in
02:15 6.6 °F 6.3 °F 1003.9 in Calm     98 % 0.0 in
02:30 6.2 °F 5.9 °F 1004.3 in Calm     98 % 0.0 in
02:45 5.8 °F 5.5 °F 1004.3 in Calm     98 % 0.0 in
03:00 5.5 °F 5.2 °F 1004.6 in Calm     98 % 0.0 in
03:15 5.3 °F 5.0 °F 1004.6 in Calm     98 % 0.0 in
03:30 5.3 °F 5.0 °F 1004.6 in Calm     98 % 0.0 in
03:45 5.3 °F 5.0 °F 1004.6 in Calm     98 % 0.0 in
04:00 5.3 °F 5.0 °F 1005.0 in Calm     98 % 0.0 in
04:15 5.4 °F 5.2 °F 1005.0 in Calm     98 % 0.0 in
04:30 5.9 °F 5.6 °F 1005.0 in Calm     98 % 0.0 in
04:45 6.1 °F 5.8 °F 1005.0 in Calm     98 % 0.0 in
05:00 5.8 °F 5.5 °F 1005.3 in Calm     98 % 0.0 in
05:15 5.6 °F 5.3 °F 1005.3 in Calm     98 % 0.0 in
05:30 5.4 °F 5.2 °F 1005.3 in Calm     98 % 0.0 in
05:45 5.7 °F 5.4 °F 1005.6 in Calm     98 % 0.0 in
06:00 6.4 °F 6.1 °F 1005.6 in Calm     98 % 0.0 in
06:15 6.9 °F 6.8 °F 1005.6 in Calm     99 % 0.0 in
06:30 7.2 °F 7.0 °F 1005.6 in Calm     99 % 0.0 in
06:45 7.2 °F 7.0 °F 1006.0 in Calm     99 % 0.0 in
07:00 7.3 °F 7.1 °F 1006.0 in Calm     99 % 0.0 in
07:15 7.2 °F 7.1 °F 1006.3 in Calm     99 % 0.0 in
07:30 6.9 °F 6.8 °F 1006.3 in Calm     99 % 0.0 in
07:45 6.6 °F 6.3 °F 1006.3 in Calm     98 % 0.0 in
08:00 6.3 °F 6.0 °F 1006.3 in Calm     98 % 0.0 in
08:15 6.0 °F 5.7 °F 1006.3 in Calm     98 % 0.0 in
08:30 5.8 °F 5.5 °F 1006.3 in Calm     98 % 0.0 in
08:45 5.9 °F 5.7 °F 1006.7 in Calm     98 % 0.0 in
09:00 5.9 °F 5.6 °F 1007.0 in Calm     98 % 0.0 in
09:15 6.0 °F 5.7 °F 1007.3 in Calm     98 % 0.0 in
09:30 6.2 °F 5.9 °F 1007.3 in Calm     98 % 0.0 in
09:45 6.4 °F 6.1 °F 1007.7 in Calm     98 % 0.0 in
10:00 6.6 °F 6.5 °F 1008.0 in Calm     99 % 0.0 in
10:15 6.8 °F 6.5 °F 1008.0 in Calm     98 % 0.0 in
10:30 7.0 °F 6.7 °F 1008.0 in Calm     98 % 0.0 in
10:45 7.2 °F 7.1 °F 1008.4 in Calm     99 % 0.0 in
11:00 7.3 °F 7.0 °F 1008.7 in Calm     98 % 0.0 in
11:15 7.6 °F 7.3 °F 1008.4 in Calm     98 % 0.0 in
11:30 7.7 °F 7.3 °F 1008.7 in Calm     97 % 0.0 in
11:45 8.1 °F 7.6 °F 1009.0 in Calm     97 % 0.0 in
12:00 8.4 °F 7.7 °F 1009.0 in Calm     95 % 0.0 in
12:15 8.7 °F 7.8 °F 1009.0 in Calm     94 % 0.0 in
12:30 8.8 °F 7.6 °F 1009.4 in Calm     92 % 0.0 in
12:45 8.8 °F 7.6 °F 1009.7 in Calm     92 % 0.0 in
13:00 8.8 °F 7.6 °F 1009.7 in Calm     92 % 0.0 in
13:15 8.8 °F 7.4 °F 1009.7 in Calm     91 % 0.0 in
13:30 8.8 °F 7.6 °F 1009.7 in Calm     92 % 0.0 in
13:45 9.0 °F 7.8 °F 1010.0 in Calm     92 % 0.0 in
14:00 9.1 °F 7.7 °F 1010.0 in Calm     91 % 0.0 in
14:15 8.9 °F 7.4 °F 1010.0 in Calm     90 % 0.0 in
14:30 8.8 °F 7.2 °F 1010.0 in Calm     90 % 0.0 in
14:45 8.8 °F 7.4 °F 1010.4 in Calm     91 % 0.0 in
15:00 9.1 °F 7.3 °F 1010.4 in Calm     89 % 0.0 in
15:15 9.6 °F 7.7 °F 1010.4 in Calm     88 % 0.0 in
15:30 10.2 °F 7.9 °F 1010.0 in Calm     86 % 0.0 in
15:45 10.3 °F 7.7 °F 1010.4 in Calm     84 % 0.0 in
16:00 10.7 °F 7.9 °F 1010.7 in Calm     83 % 0.0 in
16:15 10.6 °F 8.0 °F 1010.7 in Calm     84 % 0.0 in
16:30 10.3 °F 7.6 °F 1010.7 in Calm     83 % 0.0 in
16:45 9.9 °F 7.4 °F 1010.7 in Calm     84 % 0.0 in
17:00 9.7 °F 7.3 °F 1010.7 in Calm     85 % 0.0 in
17:15 9.3 °F 7.2 °F 1011.1 in Calm     87 % 0.0 in
17:30 9.1 °F 7.1 °F 1011.1 in Calm     87 % 0.0 in
17:45 8.8 °F 6.8 °F 1011.1 in Calm     87 % 0.0 in
18:00 8.5 °F 6.6 °F 1011.1 in Calm     88 % 0.0 in
18:15 8.0 °F 6.3 °F 1011.1 in Calm     89 % 0.0 in
18:30 7.4 °F 5.9 °F 1011.1 in Calm     90 % 0.0 in
18:45 6.9 °F 5.5 °F 1011.1 in Calm     91 % 0.0 in
19:00 6.3 °F 5.1 °F 1011.1 in Calm     92 % 0.0 in
19:15 5.8 °F 4.9 °F 1011.1 in Calm     94 % 0.0 in
19:30 5.9 °F 5.4 °F 1011.1 in Calm     96 % 0.0 in
19:45 6.4 °F 5.9 °F 1011.1 in Calm     96 % 0.0 in
20:00 6.7 °F 6.0 °F 1011.1 in Calm     95 % 0.0 in
20:15 6.7 °F 5.8 °F 1010.7 in Calm     94 % 0.0 in
20:30 6.7 °F 5.8 °F 1010.7 in Calm     94 % 0.0 in
20:45 6.8 °F 6.1 °F 1010.7 in Calm     95 % 0.0 in
21:00 7.1 °F 6.3 °F 1010.7 in Calm     95 % 0.0 in
21:30 7.2 °F 6.3 °F 1010.4 in Calm     94 % 0.0 in
21:45 7.1 °F 6.2 °F 1010.4 in Calm     94 % 0.0 in
22:00 6.9 °F 6.0 °F 1010.4 in Calm     94 % 0.0 in
22:15 6.8 °F 6.1 °F 1010.4 in Calm     95 % 0.0 in
22:30 6.8 °F 6.0 °F 1010.0 in Calm     95 % 0.0 in
22:45 6.7 °F 5.9 °F 1009.7 in Calm     95 % 0.0 in
23:00 6.7 °F 5.9 °F 1009.7 in Calm     95 % 0.0 in
23:15 6.6 °F 5.9 °F 1009.4 in Calm     95 % 0.0 in
23:30 6.5 °F 5.8 °F 1009.4 in Calm     95 % 0.0 in
23:45 6.4 °F 5.6 °F 1009.4 in Calm     95 % 0.0 in
Esan sääasema
Terveisin Weather Underground - 2.75 mb

Alkuperäinen skripti  Jim McMurry - jmcmurry@mwt.net Sovitettu myös templatelle  Wim van der Kuil - Leuven-Template.eu

Laitteet joita käytämme:

Sääasema
Davis VP2

Sääasemaohjelma
Cumulus

Sääaseman tietokone
Asus EeePC

Palveluntarjoaja
Suncomet

Davis VP2

Cumulus

Asus EeePC

Suncomet